createdAt,value
2018-03-09T00:00:14.289Z,21.7
2018-03-09T00:01:23.391Z,20.57
2018-03-09T00:02:32.320Z,20.76
2018-03-09T00:03:41.143Z,20.09
2018-03-09T00:04:49.973Z,20.47
2018-03-09T00:05:58.800Z,20.19
2018-03-09T00:07:07.626Z,18.86
2018-03-09T00:08:16.455Z,20.57
2018-03-09T00:09:25.839Z,19.73
2018-03-09T00:10:34.669Z,18.86
2018-03-09T00:11:43.496Z,18.86
2018-03-09T00:12:52.326Z,18.58
2018-03-09T00:14:01.354Z,18.01
2018-03-09T00:15:10.182Z,17.82
2018-03-09T00:16:19.007Z,16.49
2018-03-09T00:17:27.836Z,16.88
2018-03-09T00:18:36.944Z,16.49
2018-03-09T00:19:46.197Z,16.02
2018-03-09T00:20:55.024Z,16.41
2018-03-09T00:22:03.855Z,16.02
2018-03-09T00:23:12.683Z,16.78
2018-03-09T00:24:21.516Z,14.88
2018-03-09T00:25:30.727Z,15.84
2018-03-09T00:26:39.555Z,16.58
2018-03-09T00:27:48.664Z,16.11
2018-03-09T00:28:57.492Z,16.02
2018-03-09T00:30:06.319Z,15.36
2018-03-09T00:31:15.148Z,14.88
2018-03-09T00:32:23.976Z,15.64
2018-03-09T00:33:32.806Z,14.88
2018-03-09T00:34:41.631Z,14.69
2018-03-09T00:35:50.457Z,14.22
2018-03-09T00:36:59.287Z,14.12
2018-03-09T00:38:08.116Z,15.93
2018-03-09T00:39:16.943Z,16.2
2018-03-09T00:40:25.769Z,14.69
2018-03-09T00:41:34.599Z,15.07
2018-03-09T00:42:43.425Z,14.5
2018-03-09T00:43:52.252Z,14.97
2018-03-09T00:45:01.089Z,14.78
2018-03-09T00:46:10.189Z,14.88
2018-03-09T00:47:19.017Z,14.31
2018-03-09T00:48:27.842Z,14.22
2018-03-09T00:49:36.672Z,14.22
2018-03-09T00:50:45.500Z,12.32
2018-03-09T00:51:54.601Z,13.46
2018-03-09T00:53:03.475Z,13.17
2018-03-09T00:54:12.306Z,11.56
2018-03-09T00:55:21.132Z,11.56
2018-03-09T00:56:29.960Z,13.27
2018-03-09T00:57:38.789Z,13.46
2018-03-09T00:58:47.621Z,12.41
2018-03-09T00:59:56.444Z,13.36
2018-03-09T01:01:05.550Z,11.56
2018-03-09T01:02:14.377Z,12.41
2018-03-09T01:03:23.208Z,12.41
2018-03-09T01:04:32.033Z,13.46
2018-03-09T01:05:40.861Z,12.98
2018-03-09T01:06:49.688Z,12.13
2018-03-09T01:07:58.515Z,13.65
2018-03-09T01:09:07.344Z,13.46
2018-03-09T01:10:16.170Z,13.55
2018-03-09T01:11:25.048Z,12.7
2018-03-09T01:12:33.875Z,11.47
2018-03-09T01:13:42.699Z,13.27
2018-03-09T01:14:52.365Z,14.03
2018-03-09T01:16:01.195Z,14.5
2018-03-09T01:17:10.322Z,12.23
2018-03-09T01:18:19.147Z,13.46
2018-03-09T01:19:27.974Z,14.59
2018-03-09T01:20:36.828Z,13.75
2018-03-09T01:21:45.633Z,14.22
2018-03-09T01:22:54.711Z,14.78
2018-03-09T01:24:03.536Z,14.59
2018-03-09T01:25:12.646Z,13.84
2018-03-09T01:26:21.749Z,16.6
2018-03-09T01:27:30.578Z,14.98
2018-03-09T01:28:39.404Z,15.07
2018-03-09T01:29:48.236Z,16.2
2018-03-09T01:30:57.063Z,15.92
2018-03-09T01:32:06.205Z,14.59
2018-03-09T01:33:15.034Z,14.97
2018-03-09T01:34:24.022Z,13.93
2018-03-09T01:35:32.850Z,16.97
2018-03-09T01:36:41.678Z,17.91
2018-03-09T01:37:50.507Z,18.67
2018-03-09T01:38:59.333Z,18.77
2018-03-09T01:40:08.158Z,16.58
2018-03-09T01:41:16.987Z,19.53
2018-03-09T01:42:25.814Z,19.9
2018-03-09T01:43:34.644Z,20.76
2018-03-09T01:44:44.022Z,21.61
2018-03-09T01:45:52.852Z,20.47
2018-03-09T01:47:01.701Z,21.33
2018-03-09T01:48:10.506Z,19.81
2018-03-09T01:49:19.384Z,21.23
2018-03-09T01:50:28.161Z,21.61
2018-03-09T01:51:37.289Z,21.99
2018-03-09T01:52:46.117Z,23.69
2018-03-09T01:53:55.217Z,20.38
2018-03-09T01:55:04.056Z,22.18
2018-03-09T01:56:12.875Z,21.7
2018-03-09T01:57:22.099Z,20.76
2018-03-09T01:58:30.907Z,19.82
2018-03-09T01:59:39.733Z,21.61
2018-03-09T02:00:48.562Z,22.94
2018-03-09T02:01:57.393Z,23.22
2018-03-09T02:03:06.272Z,23.52
2018-03-09T02:04:15.099Z,23.9
2018-03-09T02:05:24.208Z,23.41
2018-03-09T02:06:33.309Z,24.55
2018-03-09T02:07:42.142Z,23.98
2018-03-09T02:08:51.171Z,26.27
2018-03-09T02:09:59.999Z,26.55
2018-03-09T02:11:08.831Z,26.26
2018-03-09T02:12:17.657Z,24.46
2018-03-09T02:13:26.486Z,26.84
2018-03-09T02:14:35.522Z,28.34
2018-03-09T02:15:44.633Z,26.35
2018-03-09T02:16:53.462Z,28.26
2018-03-09T02:18:02.291Z,28.91
2018-03-09T02:19:11.118Z,27.3
2018-03-09T02:20:20.425Z,27.77
2018-03-09T02:21:29.527Z,30.8
2018-03-09T02:22:38.355Z,27.77
2018-03-09T02:23:47.185Z,27.69
2018-03-09T02:24:56.012Z,29.21
2018-03-09T02:26:04.993Z,30.44
2018-03-09T02:27:14.109Z,30.62
2018-03-09T02:28:22.927Z,30.24
2018-03-09T02:29:31.756Z,33.27
2018-03-09T02:30:40.587Z,33.17
2018-03-09T02:31:49.461Z,32.04
2018-03-09T02:32:58.290Z,32.15
2018-03-09T02:34:07.117Z,30.91
2018-03-09T02:35:15.944Z,34.14
2018-03-09T02:36:24.776Z,31.95
2018-03-09T02:37:33.603Z,31.28
2018-03-09T02:38:42.434Z,34.14
2018-03-09T02:39:51.259Z,31.37
2018-03-09T02:41:00.092Z,35.66
2018-03-09T02:42:08.921Z,38.12
2018-03-09T02:43:17.811Z,36.7
2018-03-09T02:44:26.646Z,35.45
2018-03-09T02:45:35.749Z,32.91
2018-03-09T02:46:44.580Z,35.75
2018-03-09T02:47:53.412Z,37.93
2018-03-09T02:49:02.242Z,38.39
2018-03-09T02:50:11.351Z,37.37
2018-03-09T02:51:20.181Z,35.75
2018-03-09T02:52:29.025Z,38.5
2018-03-09T02:53:37.855Z,38.5
2018-03-09T02:54:46.685Z,35.57
2018-03-09T02:55:55.512Z,39.45
2018-03-09T02:57:04.342Z,34.33
2018-03-09T02:58:13.175Z,36.89
2018-03-09T02:59:22.002Z,33.37
2018-03-09T03:00:31.204Z,34.05
2018-03-09T03:01:40.032Z,35.57
2018-03-09T03:02:48.860Z,37.65
2018-03-09T03:03:57.691Z,39.64
2018-03-09T03:05:06.527Z,34.61
2018-03-09T03:06:15.455Z,36.04
2018-03-09T03:07:24.284Z,33.19
2018-03-09T03:08:33.113Z,38.5
2018-03-09T03:09:41.940Z,39.15
2018-03-09T03:10:50.768Z,37.25
2018-03-09T03:11:59.899Z,37.55
2018-03-09T03:13:09.002Z,37.63
2018-03-09T03:14:17.828Z,34.22
2018-03-09T03:15:26.657Z,35.64
2018-03-09T03:16:35.484Z,37.18
2018-03-09T03:17:44.612Z,37.25
2018-03-09T03:18:53.443Z,35.94
2018-03-09T03:20:02.551Z,39.54
2018-03-09T03:21:11.432Z,37.73
2018-03-09T03:22:20.540Z,41.73
2018-03-09T03:23:29.468Z,34.71
2018-03-09T03:24:38.297Z,39.54
2018-03-09T03:25:47.125Z,39.45
2018-03-09T03:26:55.956Z,38.69
2018-03-09T03:28:05.060Z,37.18
2018-03-09T03:29:14.139Z,39.62
2018-03-09T03:30:22.968Z,33.29
2018-03-09T03:31:31.799Z,37.46
2018-03-09T03:32:40.904Z,39.83
2018-03-09T03:33:50.008Z,41.44
2018-03-09T03:34:58.836Z,38.39
2018-03-09T03:36:07.664Z,40.88
2018-03-09T03:37:16.493Z,37.93
2018-03-09T03:38:25.343Z,39.73
2018-03-09T03:39:34.146Z,40.66
2018-03-09T03:40:42.974Z,36.13
2018-03-09T03:41:51.805Z,38.6
2018-03-09T03:43:00.634Z,34.71
2018-03-09T03:44:09.469Z,36.99
2018-03-09T03:45:18.569Z,34.99
2018-03-09T03:46:27.447Z,36.02
2018-03-09T03:47:36.275Z,38.5
2018-03-09T03:48:45.106Z,36.04
2018-03-09T03:49:53.934Z,34.42
2018-03-09T03:51:02.760Z,34.05
2018-03-09T03:52:11.589Z,36.7
2018-03-09T03:53:20.423Z,36.22
2018-03-09T03:54:29.251Z,35.94
2018-03-09T03:55:38.078Z,35.26
2018-03-09T03:56:46.908Z,35.83
2018-03-09T03:57:55.988Z,37.93
2018-03-09T03:59:04.818Z,36.78
2018-03-09T04:00:13.646Z,31.75
2018-03-09T04:01:22.475Z,31.96
2018-03-09T04:02:31.303Z,34.61
2018-03-09T04:03:40.832Z,36.22
2018-03-09T04:04:49.659Z,36.89
2018-03-09T04:05:58.489Z,36.11
2018-03-09T04:07:07.595Z,33.08
2018-03-09T04:08:16.425Z,38.29
2018-03-09T04:09:25.300Z,34.98
2018-03-09T04:10:34.130Z,37.92
2018-03-09T04:11:42.958Z,34.12
2018-03-09T04:12:51.783Z,33.29
2018-03-09T04:14:00.613Z,34.14
2018-03-09T04:15:09.439Z,33.19
2018-03-09T04:16:18.546Z,36.61
2018-03-09T04:17:27.372Z,37.25
2018-03-09T04:18:36.201Z,37.63
2018-03-09T04:19:45.032Z,33.27
2018-03-09T04:20:54.722Z,34.05
2018-03-09T04:22:03.548Z,33.17
2018-03-09T04:23:12.654Z,38.69
2018-03-09T04:24:21.482Z,36.87
2018-03-09T04:25:30.310Z,35.64
2018-03-09T04:26:39.137Z,34.98
2018-03-09T04:27:47.966Z,36.68
2018-03-09T04:28:56.794Z,34.12
2018-03-09T04:30:05.623Z,35.17
2018-03-09T04:31:14.452Z,33.27
2018-03-09T04:32:23.329Z,34.31
2018-03-09T04:33:32.158Z,34.22
2018-03-09T04:34:40.985Z,36.11
2018-03-09T04:35:49.816Z,31.75
2018-03-09T04:36:58.643Z,34.71
2018-03-09T04:38:07.621Z,37.55
2018-03-09T04:39:16.449Z,37.25
2018-03-09T04:40:25.277Z,35.17
2018-03-09T04:41:34.105Z,35.93
2018-03-09T04:42:42.935Z,34.12
2018-03-09T04:43:51.868Z,36.78
2018-03-09T04:45:00.693Z,36.21
2018-03-09T04:46:09.522Z,37.92
2018-03-09T04:47:18.348Z,37.35
2018-03-09T04:48:27.747Z,36.97
2018-03-09T04:49:36.573Z,35.74
2018-03-09T04:50:45.403Z,36.11
2018-03-09T04:51:54.232Z,34.88
2018-03-09T04:53:03.061Z,35.45
2018-03-09T04:54:11.890Z,34.5
2018-03-09T04:55:20.719Z,36.4
2018-03-09T04:56:29.545Z,36.59
2018-03-09T04:57:38.372Z,36.02
2018-03-09T04:58:47.203Z,35.74
2018-03-09T04:59:56.029Z,36.59
2018-03-09T05:01:05.058Z,32.04
2018-03-09T05:02:14.159Z,31.66
2018-03-09T05:03:22.988Z,34.03
2018-03-09T05:04:31.817Z,34.41
2018-03-09T05:05:40.645Z,35.45
2018-03-09T05:06:49.774Z,36.68
2018-03-09T05:07:58.603Z,37.73
2018-03-09T05:09:07.716Z,36.68
2018-03-09T05:10:16.597Z,33.37
2018-03-09T05:11:25.384Z,34.22
2018-03-09T05:12:34.538Z,34.12
2018-03-09T05:13:43.368Z,36.68
2018-03-09T05:14:52.196Z,36.4
2018-03-09T05:16:01.026Z,36.11
2018-03-09T05:17:09.855Z,37.16
2018-03-09T05:18:18.684Z,36.68
2018-03-09T05:19:27.515Z,33.75
2018-03-09T05:20:36.618Z,37.25
2018-03-09T05:21:45.445Z,37.25
2018-03-09T05:22:54.273Z,38.01
2018-03-09T05:24:03.303Z,35.45
2018-03-09T05:25:12.134Z,31.85
2018-03-09T05:26:20.962Z,33.27
2018-03-09T05:27:29.792Z,34.41
2018-03-09T05:28:38.620Z,37.06
2018-03-09T05:29:47.600Z,34.41
2018-03-09T05:30:56.790Z,35.26
2018-03-09T05:32:05.834Z,34.98
2018-03-09T05:33:15.216Z,30.99
2018-03-09T05:34:24.049Z,35.83
2018-03-09T05:35:32.890Z,34.59
2018-03-09T05:36:41.720Z,35.83
2018-03-09T05:37:50.549Z,29.19
2018-03-09T05:38:59.627Z,34.5
2018-03-09T05:40:08.456Z,33.27
2018-03-09T05:41:17.334Z,35.93
2018-03-09T05:42:26.441Z,35.07
2018-03-09T05:43:35.269Z,35.64
2018-03-09T05:44:44.098Z,36.02
2018-03-09T05:45:52.929Z,37.16
2018-03-09T05:47:01.760Z,37.73
2018-03-09T05:48:10.591Z,38.48
2018-03-09T05:49:19.417Z,37.63
2018-03-09T05:50:28.249Z,38.58
2018-03-09T05:51:37.079Z,38.58
2018-03-09T05:52:45.908Z,38.48
2018-03-09T05:53:54.738Z,38.58
2018-03-09T05:55:03.566Z,38.48
2018-03-09T05:56:12.395Z,38.48
2018-03-09T05:57:21.225Z,35.74
2018-03-09T05:58:30.105Z,38.48
2018-03-09T05:59:39.211Z,38.77
2018-03-09T06:00:48.040Z,37.73
2018-03-09T06:01:56.871Z,38.48
2018-03-09T06:03:05.980Z,38.48
2018-03-09T06:04:15.108Z,38.58
2018-03-09T06:05:23.936Z,38.58
2018-03-09T06:06:32.765Z,38.96
2018-03-09T06:07:41.598Z,38.58
2018-03-09T06:08:50.428Z,38.86
2018-03-09T06:09:59.834Z,39.34
2018-03-09T06:11:08.662Z,38.86
2018-03-09T06:12:17.491Z,38.48
2018-03-09T06:13:26.597Z,39.43
2018-03-09T06:14:35.427Z,39.72
2018-03-09T06:15:44.532Z,39.05
2018-03-09T06:16:53.366Z,39.15
2018-03-09T06:18:02.197Z,39.43
2018-03-09T06:19:11.023Z,39.34
2018-03-09T06:20:19.854Z,39.24
2018-03-09T06:21:28.834Z,38.96
2018-03-09T06:22:37.666Z,38.77
2018-03-09T06:23:46.772Z,39.34
2018-03-09T06:24:55.600Z,39.34
2018-03-09T06:26:04.703Z,39.24
2018-03-09T06:27:13.683Z,39.62
2018-03-09T06:28:22.792Z,38.86
2018-03-09T06:29:31.623Z,39.53
2018-03-09T06:30:40.453Z,39.34
2018-03-09T06:31:49.283Z,39.34
2018-03-09T06:32:58.212Z,38.58
2018-03-09T06:34:07.318Z,38.39
2018-03-09T06:35:16.151Z,38.86
2018-03-09T06:36:24.982Z,38.39
2018-03-09T06:37:34.088Z,38.67
2018-03-09T06:38:42.919Z,38.29
2018-03-09T06:39:51.750Z,38.48
2018-03-09T06:41:00.677Z,38.86
2018-03-09T06:42:09.504Z,38.48
2018-03-09T06:43:18.332Z,38.67
2018-03-09T06:44:27.163Z,38.67
2018-03-09T06:45:35.990Z,38.58
2018-03-09T06:46:44.820Z,38.48
2018-03-09T06:47:53.653Z,38.67
2018-03-09T06:49:02.479Z,38.48
2018-03-09T06:50:11.459Z,38.58
2018-03-09T06:51:20.290Z,38.48
2018-03-09T06:52:29.120Z,38.77
2018-03-09T06:53:37.947Z,38.2
2018-03-09T06:54:46.778Z,38.58
2018-03-09T06:55:55.809Z,38.58
2018-03-09T06:57:04.643Z,38.2
2018-03-09T06:58:13.473Z,38.29
2018-03-09T06:59:22.299Z,38.39
2018-03-09T07:00:31.405Z,38.39
2018-03-09T07:01:40.536Z,38.39
2018-03-09T07:02:49.367Z,38.39
2018-03-09T07:03:58.194Z,38.29
2018-03-09T07:05:07.297Z,38.48
2018-03-09T07:06:16.128Z,38.2
2018-03-09T07:07:25.282Z,37.82
2018-03-09T07:08:34.112Z,38.48
2018-03-09T07:09:42.941Z,37.73
2018-03-09T07:10:51.770Z,37.73
2018-03-09T07:12:00.879Z,37.44
2018-03-09T07:13:10.235Z,37.73
2018-03-09T07:14:19.064Z,38.39
2018-03-09T07:15:27.895Z,37.73
2018-03-09T07:16:36.723Z,36.87
2018-03-09T07:17:45.552Z,37.73
2018-03-09T07:18:54.480Z,37.73
2018-03-09T07:20:03.314Z,37.16
2018-03-09T07:21:12.144Z,36.97
2018-03-09T07:22:20.973Z,37.63
2018-03-09T07:23:29.802Z,37.16
2018-03-09T07:24:38.633Z,37.82
2018-03-09T07:25:47.464Z,37.06
2018-03-09T07:26:56.294Z,37.82
2018-03-09T07:28:05.122Z,37.25
2018-03-09T07:29:13.953Z,37.63
2018-03-09T07:30:22.837Z,36.97
2018-03-09T07:31:31.666Z,37.73
2018-03-09T07:32:40.518Z,37.63
2018-03-09T07:33:49.903Z,37.46
2018-03-09T07:34:58.754Z,37.35
2018-03-09T07:36:07.966Z,36.99
2018-03-09T07:37:16.796Z,36.99
2018-03-09T07:38:25.626Z,37.18
2018-03-09T07:39:34.457Z,37.37
2018-03-09T07:40:43.305Z,37.84
2018-03-09T07:41:52.119Z,37.37
2018-03-09T07:43:00.948Z,37.27
2018-03-09T07:44:09.776Z,37.08
2018-03-09T07:45:18.608Z,37.08
2018-03-09T07:46:27.811Z,37.18
2018-03-09T07:47:36.772Z,36.89
2018-03-09T07:48:45.602Z,37.27
2018-03-09T07:49:54.436Z,37.18
2018-03-09T07:51:03.541Z,36.32
2018-03-09T07:52:12.373Z,36.89
2018-03-09T07:53:21.307Z,36.61
2018-03-09T07:54:30.139Z,36.99
2018-03-09T07:55:38.972Z,36.61
2018-03-09T07:56:47.807Z,36.7
2018-03-09T07:57:56.913Z,36.8
2018-03-09T07:59:06.319Z,37.08
2018-03-09T08:00:15.148Z,36.99
2018-03-09T08:01:23.977Z,36.8
2018-03-09T08:02:32.810Z,37.18
2018-03-09T08:03:41.643Z,36.99
2018-03-09T08:04:50.522Z,36.8
2018-03-09T08:05:59.359Z,37.18
2018-03-09T08:07:08.182Z,36.8
2018-03-09T08:08:17.294Z,37.27
2018-03-09T08:09:26.174Z,36.99
2018-03-09T08:10:35.054Z,36.89
2018-03-09T08:11:43.916Z,36.7
2018-03-09T08:12:52.716Z,36.8
2018-03-09T08:14:01.547Z,37.18
2018-03-09T08:15:10.379Z,37.37
2018-03-09T08:16:19.206Z,37.08
2018-03-09T08:17:28.405Z,37.27
2018-03-09T08:18:37.253Z,36.89
2018-03-09T08:19:46.025Z,36.89
2018-03-09T08:20:54.860Z,36.42
2018-03-09T08:22:03.842Z,36.89
2018-03-09T08:23:12.674Z,36.89
2018-03-09T08:24:21.507Z,36.89
2018-03-09T08:25:30.625Z,37.08
2018-03-09T08:26:39.475Z,36.7
2018-03-09T08:27:48.336Z,37.18
2018-03-09T08:28:57.168Z,36.22
2018-03-09T08:30:06.002Z,36.8
2018-03-09T08:31:14.838Z,36.89
2018-03-09T08:32:23.668Z,37.08
2018-03-09T08:33:32.778Z,37.27
2018-03-09T08:34:41.885Z,37.27
2018-03-09T08:35:50.714Z,36.99
2018-03-09T08:36:59.546Z,36.89
2018-03-09T08:38:08.377Z,37.18
2018-03-09T08:39:17.508Z,36.8
2018-03-09T08:40:26.398Z,36.99
2018-03-09T08:41:35.440Z,37.08
2018-03-09T08:42:44.273Z,36.82
2018-03-09T08:43:53.105Z,37.01
2018-03-09T08:45:01.937Z,37.19
2018-03-09T08:46:10.767Z,36.63
2018-03-09T08:47:19.598Z,37.01
2018-03-09T08:48:28.428Z,37.76
2018-03-09T08:49:37.258Z,37.76
2018-03-09T08:50:46.242Z,37.67
2018-03-09T08:51:55.078Z,37.38
2018-03-09T08:53:03.912Z,37.01
2018-03-09T08:54:12.739Z,37.29
2018-03-09T08:55:21.847Z,37.86
2018-03-09T08:56:30.778Z,37.86
2018-03-09T08:57:39.611Z,38.43
2018-03-09T08:58:48.442Z,38.62
2018-03-09T08:59:57.270Z,38.53
2018-03-09T09:01:06.112Z,38.62
2018-03-09T09:02:15.271Z,38.33
2018-03-09T09:03:24.429Z,38.53
2018-03-09T09:04:33.216Z,38.24
2018-03-09T09:05:42.047Z,38.71
2018-03-09T09:06:50.880Z,38.53
2018-03-09T09:08:00.187Z,39.66
2018-03-09T09:09:09.050Z,38.71
2018-03-09T09:10:17.854Z,38.9
2018-03-09T09:11:26.688Z,39.37
2018-03-09T09:12:35.853Z,39.95
2018-03-09T09:13:45.085Z,39.09
2018-03-09T09:14:53.918Z,39.28
2018-03-09T09:16:03.026Z,39.95
2018-03-09T09:17:11.858Z,39.95
2018-03-09T09:18:20.689Z,39.85
2018-03-09T09:19:29.820Z,39.95
2018-03-09T09:20:38.650Z,39.95
2018-03-09T09:21:47.783Z,40.34
2018-03-09T09:22:56.616Z,39.68
2018-03-09T09:24:05.731Z,40.82
2018-03-09T09:25:14.710Z,40.23
2018-03-09T09:26:23.575Z,41.11
2018-03-09T09:27:32.741Z,41.49
2018-03-09T09:28:41.517Z,42.53
2018-03-09T09:29:50.350Z,42.05
2018-03-09T09:30:59.585Z,42.82
2018-03-09T09:32:08.416Z,43.38
2018-03-09T09:33:17.247Z,43.19
2018-03-09T09:34:26.078Z,44.14
2018-03-09T09:35:34.914Z,44.34
2018-03-09T09:36:43.945Z,41.2
2018-03-09T09:37:52.731Z,44.34
2018-03-09T09:39:01.614Z,43.95
2018-03-09T09:40:10.955Z,45.66
2018-03-09T09:41:20.064Z,44.34
2018-03-09T09:42:28.996Z,44.53
2018-03-09T09:43:37.833Z,44.34
2018-03-09T09:44:46.659Z,45.19
2018-03-09T09:45:55.490Z,45.28
2018-03-09T09:47:04.321Z,45.09
2018-03-09T09:48:13.205Z,46.04
2018-03-09T09:49:22.036Z,47.85
2018-03-09T09:50:31.148Z,46.33
2018-03-09T09:51:39.980Z,46.04
2018-03-09T09:52:48.808Z,47.37
2018-03-09T09:53:57.695Z,47.37
2018-03-09T09:55:06.473Z,47.37
2018-03-09T09:56:15.306Z,47.75
2018-03-09T09:57:24.143Z,47.97
2018-03-09T09:58:32.975Z,48.35
2018-03-09T09:59:41.859Z,47.97
2018-03-09T10:00:50.694Z,47.39
2018-03-09T10:01:59.810Z,49.68
2018-03-09T10:03:08.648Z,47.39
2018-03-09T10:04:18.033Z,49.2
2018-03-09T10:05:26.969Z,50.81
2018-03-09T10:06:35.798Z,52.43
2018-03-09T10:07:44.631Z,53.28
2018-03-09T10:08:53.465Z,52.81
2018-03-09T10:10:02.298Z,52.81
2018-03-09T10:11:11.296Z,53.09
2018-03-09T10:12:20.114Z,52.81
2018-03-09T10:13:29.053Z,53.95
2018-03-09T10:14:37.883Z,54.05
2018-03-09T10:15:46.717Z,53.66
2018-03-09T10:16:55.954Z,53.95
2018-03-09T10:18:04.791Z,55.66
2018-03-09T10:19:13.625Z,55.57
2018-03-09T10:20:22.459Z,54.9
2018-03-09T10:21:31.292Z,55.18
2018-03-09T10:22:40.186Z,55.97
2018-03-09T10:23:49.297Z,54.83
2018-03-09T10:24:58.130Z,55.59
2018-03-09T10:26:06.965Z,57.3
2018-03-09T10:27:16.081Z,58.16
2018-03-09T10:28:25.066Z,59.01
2018-03-09T10:29:33.900Z,57.97
2018-03-09T10:30:43.009Z,57.3
2018-03-09T10:31:51.846Z,60.44
2018-03-09T10:33:00.685Z,60.44
2018-03-09T10:34:09.895Z,61.1
2018-03-09T10:35:18.729Z,60.44
2018-03-09T10:36:27.563Z,56.92
2018-03-09T10:37:36.399Z,60.06
2018-03-09T10:38:45.240Z,60.63
2018-03-09T10:39:54.073Z,60.82
2018-03-09T10:41:03.188Z,61.2
2018-03-09T10:42:12.023Z,61.48
2018-03-09T10:43:20.860Z,60.06
2018-03-09T10:44:29.696Z,60.82
2018-03-09T10:45:38.832Z,61.77
2018-03-09T10:46:47.670Z,59.77
2018-03-09T10:47:56.511Z,61.77
2018-03-09T10:49:05.351Z,61.58
2018-03-09T10:50:14.185Z,61.2
2018-03-09T10:51:23.121Z,60.82
2018-03-09T10:52:31.956Z,60.44
2018-03-09T10:53:40.789Z,61.29
2018-03-09T10:54:49.622Z,60.72
2018-03-09T10:55:58.749Z,61.39
2018-03-09T10:57:07.732Z,61.01
2018-03-09T10:58:16.565Z,61.29
2018-03-09T10:59:25.420Z,61.29
2018-03-09T11:00:34.230Z,61.1
2018-03-09T11:01:43.066Z,60.25
2018-03-09T11:02:51.949Z,60.25
2018-03-09T11:04:00.782Z,60.47
2018-03-09T11:05:09.615Z,60.47
2018-03-09T11:06:18.454Z,60.28
2018-03-09T11:07:27.290Z,60.94
2018-03-09T11:08:36.375Z,61.23
2018-03-09T11:09:45.487Z,60.94
2018-03-09T11:10:54.326Z,60.38
2018-03-09T11:12:03.159Z,61.13
2018-03-09T11:13:11.993Z,60.57
2018-03-09T11:14:20.981Z,61.42
2018-03-09T11:15:29.814Z,61.9
2018-03-09T11:16:38.647Z,61.99
2018-03-09T11:17:47.480Z,61.99
2018-03-09T11:18:56.314Z,61.8
2018-03-09T11:20:05.146Z,61.8
2018-03-09T11:21:13.983Z,62.37
2018-03-09T11:22:22.814Z,61.9
2018-03-09T11:23:31.648Z,62.65
2018-03-09T11:24:40.482Z,62.56
2018-03-09T11:25:49.324Z,62.46
2018-03-09T11:26:58.449Z,62.37
2018-03-09T11:28:07.559Z,62.46
2018-03-09T11:29:16.395Z,62.85
2018-03-09T11:30:25.232Z,63.51
2018-03-09T11:31:34.065Z,64.27
2018-03-09T11:32:42.900Z,63.89
2018-03-09T11:33:51.734Z,64.56
2018-03-09T11:35:00.571Z,64.46
2018-03-09T11:36:09.406Z,64.65
2018-03-09T11:37:18.392Z,64.37
2018-03-09T11:38:27.227Z,65.03
2018-03-09T11:39:36.063Z,64.37
2018-03-09T11:40:44.899Z,64.65
2018-03-09T11:41:53.730Z,64.9
2018-03-09T11:43:02.848Z,64.65
2018-03-09T11:44:11.683Z,64.27
2018-03-09T11:45:20.518Z,64.37
2018-03-09T11:46:29.352Z,64.65
2018-03-09T11:47:38.187Z,64.56
2018-03-09T11:48:47.120Z,64.46
2018-03-09T11:49:55.953Z,64.08
2018-03-09T11:51:04.787Z,64.46
2018-03-09T11:52:13.622Z,64.37
2018-03-09T11:53:22.456Z,64.18
2018-03-09T11:54:31.814Z,62.75
2018-03-09T11:55:40.647Z,64.18
2018-03-09T11:56:49.489Z,64.27
2018-03-09T11:57:58.598Z,64.27
2018-03-09T11:59:07.712Z,64.56
2018-03-09T12:00:16.846Z,63.79
2018-03-09T12:01:25.680Z,64.75
2018-03-09T12:02:34.515Z,64.65
2018-03-09T12:03:43.348Z,64.65
2018-03-09T12:04:52.182Z,64.56
2018-03-09T12:06:01.317Z,63.29
2018-03-09T12:07:10.427Z,64.18
2018-03-09T12:08:19.277Z,64.18
2018-03-09T12:09:28.387Z,63.42
2018-03-09T12:10:37.217Z,64.56
2018-03-09T12:11:46.352Z,63.23
2018-03-09T12:12:55.189Z,64.46
2018-03-09T12:14:04.021Z,64.37
2018-03-09T12:15:12.855Z,65.13
2018-03-09T12:16:21.749Z,66.94
2018-03-09T12:17:30.574Z,66.84
2018-03-09T12:18:39.410Z,67.13
2018-03-09T12:19:48.518Z,67.6
2018-03-09T12:20:57.354Z,67.13
2018-03-09T12:22:06.190Z,67.79
2018-03-09T12:23:15.124Z,67.41
2018-03-09T12:24:23.960Z,68.36
2018-03-09T12:25:32.798Z,68.36
2018-03-09T12:26:41.633Z,68.55
2018-03-09T12:27:50.744Z,68.07
2018-03-09T12:28:59.577Z,68.46
2018-03-09T12:30:08.412Z,68.74
2018-03-09T12:31:17.525Z,69.69
2018-03-09T12:32:26.360Z,68.84
2018-03-09T12:33:35.195Z,68.87
2018-03-09T12:34:44.128Z,69.15
2018-03-09T12:35:52.964Z,69.06
2018-03-09T12:37:01.796Z,70.01
2018-03-09T12:38:10.630Z,70.68
2018-03-09T12:39:19.464Z,72.77
2018-03-09T12:40:28.400Z,72.58
2018-03-09T12:41:37.509Z,73.15
2018-03-09T12:42:46.386Z,70.2
2018-03-09T12:43:55.178Z,74.29
2018-03-09T12:45:04.022Z,74.01
2018-03-09T12:46:12.922Z,75.43
2018-03-09T12:47:21.741Z,75.53
2018-03-09T12:48:30.577Z,76.2
2018-03-09T12:49:39.410Z,76.29
2018-03-09T12:50:48.347Z,76.76
2018-03-09T12:51:57.184Z,76.9
2018-03-09T12:53:06.021Z,77
2018-03-09T12:54:14.895Z,76.71
2018-03-09T12:55:23.697Z,77.47
2018-03-09T12:56:32.534Z,77
2018-03-09T12:57:41.421Z,77.76
2018-03-09T12:58:50.259Z,76.81
2018-03-09T12:59:59.380Z,78.14
2018-03-09T13:01:08.217Z,78.14
2018-03-09T13:02:17.050Z,77.72
2018-03-09T13:03:25.887Z,76.67
2018-03-09T13:04:34.735Z,78.23
2018-03-09T13:05:43.572Z,77.72
2018-03-09T13:06:52.422Z,78.04
2018-03-09T13:08:01.252Z,77.34
2018-03-09T13:09:10.363Z,79.28
2018-03-09T13:10:19.200Z,79.19
2018-03-09T13:11:28.077Z,79.19
2018-03-09T13:12:36.876Z,79.33
2018-03-09T13:13:45.711Z,79.81
2018-03-09T13:14:54.546Z,79.81
2018-03-09T13:16:03.407Z,79.52
2018-03-09T13:17:12.222Z,79.72
2018-03-09T13:18:21.060Z,80.47
2018-03-09T13:19:29.894Z,80.13
2018-03-09T13:20:38.730Z,80.13
2018-03-09T13:21:47.565Z,78.23
2018-03-09T13:22:56.403Z,80.23
2018-03-09T13:24:05.668Z,79.57
2018-03-09T13:25:14.782Z,79.38
2018-03-09T13:26:23.620Z,79.38
2018-03-09T13:27:32.458Z,79.19
2018-03-09T13:28:41.572Z,78.99
2018-03-09T13:29:50.413Z,79.19
2018-03-09T13:30:59.248Z,78.8
2018-03-09T13:32:08.084Z,79.38
2018-03-09T13:33:16.919Z,79.09
2018-03-09T13:34:25.804Z,79.85
2018-03-09T13:35:34.642Z,79.14
2018-03-09T13:36:43.476Z,79.43
2018-03-09T13:37:52.313Z,78.96
2018-03-09T13:39:01.427Z,79.81
2018-03-09T13:40:10.409Z,79.14
2018-03-09T13:41:19.244Z,74.77
2018-03-09T13:42:28.081Z,79.33
2018-03-09T13:43:36.921Z,79.24
2018-03-09T13:44:46.032Z,78.96
2018-03-09T13:45:55.297Z,78
2018-03-09T13:47:04.133Z,79.72
2018-03-09T13:48:12.980Z,80
2018-03-09T13:49:21.829Z,79.52
2018-03-09T13:50:30.665Z,80.1
2018-03-09T13:51:39.651Z,80.52
2018-03-09T13:52:48.489Z,80.52
2018-03-09T13:53:57.323Z,80.38
2018-03-09T13:55:06.159Z,80.86
2018-03-09T13:56:14.993Z,80.86
2018-03-09T13:57:23.828Z,81.28
2018-03-09T13:58:33.001Z,81.28
2018-03-09T13:59:42.108Z,80.8
2018-03-09T14:00:51.498Z,81.56
2018-03-09T14:02:00.332Z,81.76
2018-03-09T14:03:09.259Z,82.32
2018-03-09T14:04:18.049Z,82.32
2018-03-09T14:05:26.885Z,81.85
2018-03-09T14:06:35.732Z,82.86
2018-03-09T14:07:44.853Z,81.71
2018-03-09T14:08:53.836Z,82.95
2018-03-09T14:10:02.674Z,82.67
2018-03-09T14:11:11.514Z,82.57
2018-03-09T14:12:20.638Z,82.86
2018-03-09T14:13:29.479Z,79.81
2018-03-09T14:14:38.465Z,82.28
2018-03-09T14:15:47.349Z,81.76
2018-03-09T14:16:56.212Z,82.86
2018-03-09T14:18:05.063Z,80.47
2018-03-09T14:19:13.947Z,82.19
2018-03-09T14:20:23.001Z,82.48
2018-03-09T14:21:31.821Z,82.67
2018-03-09T14:22:40.656Z,82.86
2018-03-09T14:23:49.493Z,81.71
2018-03-09T14:24:58.605Z,83.04
2018-03-09T14:26:07.741Z,83.04
2018-03-09T14:27:16.579Z,82.95
2018-03-09T14:28:25.417Z,83.14
2018-03-09T14:29:34.253Z,83.9
2018-03-09T14:30:43.091Z,82.86
2018-03-09T14:31:52.073Z,83.71
2018-03-09T14:33:00.907Z,83.14
2018-03-09T14:34:09.743Z,83.33
2018-03-09T14:35:18.581Z,83.71
2018-03-09T14:36:27.415Z,83.33
2018-03-09T14:37:36.756Z,82.86
2018-03-09T14:38:45.593Z,83.52
2018-03-09T14:39:54.430Z,83.71
2018-03-09T14:41:03.264Z,83.62
2018-03-09T14:42:12.098Z,82.86
2018-03-09T14:43:20.934Z,83.52
2018-03-09T14:44:29.811Z,83.52
2018-03-09T14:45:38.606Z,83.81
2018-03-09T14:46:47.450Z,83.71
2018-03-09T14:47:56.300Z,83.71
2018-03-09T14:49:05.247Z,83.42